createdAt,value
2017-06-02T00:01:42.180Z,19.04
2017-06-02T00:02:42.815Z,19.06
2017-06-02T00:03:43.428Z,18.95
2017-06-02T00:04:44.027Z,19.02
2017-06-02T00:05:44.639Z,18.96
2017-06-02T00:06:45.250Z,18.92
2017-06-02T00:07:45.851Z,18.93
2017-06-02T00:08:46.458Z,18.93
2017-06-02T00:09:47.069Z,18.95
2017-06-02T00:10:47.679Z,18.92
2017-06-02T00:11:48.289Z,18.85
2017-06-02T00:12:48.892Z,18.95
2017-06-02T00:13:49.494Z,18.84
2017-06-02T00:14:50.113Z,18.77
2017-06-02T00:15:50.730Z,18.81
2017-06-02T00:16:51.347Z,18.81
2017-06-02T00:17:51.943Z,18.81
2017-06-02T00:18:52.556Z,18.83
2017-06-02T00:19:53.167Z,18.78
2017-06-02T00:20:53.777Z,18.73
2017-06-02T00:21:54.387Z,18.69
2017-06-02T00:22:54.986Z,18.69
2017-06-02T00:23:55.602Z,18.73
2017-06-02T00:24:56.208Z,18.69
2017-06-02T00:25:56.819Z,18.59
2017-06-02T00:26:57.430Z,18.62
2017-06-02T00:27:58.094Z,18.62
2017-06-02T00:28:58.699Z,18.65
2017-06-02T00:29:59.298Z,18.60
2017-06-02T00:30:59.913Z,18.53
2017-06-02T00:32:00.517Z,18.58
2017-06-02T00:33:01.131Z,18.53
2017-06-02T00:34:01.732Z,18.53
2017-06-02T00:35:02.335Z,18.55
2017-06-02T00:36:02.954Z,18.56
2017-06-02T00:37:03.617Z,18.56
2017-06-02T00:38:04.233Z,18.53
2017-06-02T00:39:04.838Z,18.51
2017-06-02T00:40:05.434Z,18.47
2017-06-02T00:41:06.050Z,18.41
2017-06-02T00:42:06.661Z,18.45
2017-06-02T00:43:07.261Z,18.38
2017-06-02T00:44:07.872Z,18.40
2017-06-02T00:45:08.485Z,18.35
2017-06-02T00:46:09.096Z,18.32
2017-06-02T00:47:09.701Z,18.26
2017-06-02T00:48:10.304Z,18.30
2017-06-02T00:49:10.920Z,18.29
2017-06-02T00:50:11.529Z,18.19
2017-06-02T00:51:12.144Z,18.34
2017-06-02T00:52:12.756Z,18.19
2017-06-02T00:53:13.414Z,18.26
2017-06-02T00:54:14.013Z,18.23
2017-06-02T00:55:14.624Z,18.26
2017-06-02T00:56:15.226Z,18.22
2017-06-02T00:57:15.839Z,18.12
2017-06-02T00:58:16.453Z,18.11
2017-06-02T00:59:17.067Z,18.11
2017-06-02T01:00:17.679Z,18.12
2017-06-02T01:01:18.283Z,18.11
2017-06-02T01:02:18.884Z,18.19
2017-06-02T01:03:19.497Z,18.05
2017-06-02T01:04:20.107Z,18.08
2017-06-02T01:05:20.753Z,17.98
2017-06-02T01:06:21.337Z,17.97
2017-06-02T01:07:21.956Z,17.92
2017-06-02T01:08:22.570Z,18.01
2017-06-02T01:09:23.187Z,18.04
2017-06-02T01:10:23.801Z,18.00
2017-06-02T01:11:24.399Z,17.87
2017-06-02T01:12:24.995Z,17.85
2017-06-02T01:13:25.604Z,17.86
2017-06-02T01:14:26.216Z,17.86
2017-06-02T01:15:26.821Z,17.85
2017-06-02T01:16:27.433Z,17.87
2017-06-02T01:17:28.033Z,17.85
2017-06-02T01:18:28.635Z,17.85
2017-06-02T01:19:29.241Z,17.85
2017-06-02T01:20:29.842Z,17.77
2017-06-02T01:21:30.461Z,17.72
2017-06-02T01:22:31.075Z,17.68
2017-06-02T01:23:31.675Z,17.71
2017-06-02T01:24:32.279Z,17.74
2017-06-02T01:25:32.890Z,17.70
2017-06-02T01:26:33.501Z,17.71
2017-06-02T01:27:34.118Z,17.68
2017-06-02T01:28:34.730Z,17.65
2017-06-02T01:29:35.348Z,17.67
2017-06-02T01:30:35.965Z,17.63
2017-06-02T01:31:36.568Z,17.59
2017-06-02T01:32:37.174Z,17.55
2017-06-02T01:33:37.784Z,17.55
2017-06-02T01:34:38.399Z,17.60
2017-06-02T01:35:39.007Z,17.55
2017-06-02T01:36:39.623Z,17.54
2017-06-02T01:37:40.221Z,17.54
2017-06-02T01:38:40.835Z,17.45
2017-06-02T01:39:41.452Z,17.52
2017-06-02T01:40:42.064Z,17.48
2017-06-02T01:41:42.666Z,17.51
2017-06-02T01:42:43.266Z,17.42
2017-06-02T01:43:43.864Z,17.45
2017-06-02T01:44:44.469Z,17.41
2017-06-02T01:45:45.080Z,17.39
2017-06-02T01:46:45.695Z,17.39
2017-06-02T01:47:46.309Z,17.36
2017-06-02T01:48:46.930Z,17.36
2017-06-02T01:49:47.526Z,17.34
2017-06-02T01:50:48.127Z,17.33
2017-06-02T01:51:48.732Z,17.37
2017-06-02T01:52:49.342Z,17.34
2017-06-02T01:53:49.960Z,17.31
2017-06-02T01:54:50.576Z,17.36
2017-06-02T01:55:51.193Z,17.31
2017-06-02T01:56:51.802Z,17.19
2017-06-02T01:57:52.400Z,17.31
2017-06-02T01:58:53.003Z,17.29
2017-06-02T01:59:53.619Z,17.14
2017-06-02T02:00:54.235Z,17.16
2017-06-02T02:01:54.845Z,17.16
2017-06-02T02:02:55.445Z,17.01
2017-06-02T02:03:56.046Z,17.09
2017-06-02T02:04:56.658Z,17.04
2017-06-02T02:05:57.266Z,17.00
2017-06-02T02:06:57.871Z,17.01
2017-06-02T02:07:58.496Z,16.97
2017-06-02T02:08:59.120Z,16.90
2017-06-02T02:09:59.730Z,17.04
2017-06-02T02:11:00.342Z,17.04
2017-06-02T02:12:00.905Z,16.97
2017-06-02T02:13:01.460Z,17.05
2017-06-02T02:14:02.026Z,16.96
2017-06-02T02:15:02.583Z,16.98
2017-06-02T02:16:03.152Z,16.97
2017-06-02T02:17:03.710Z,16.87
2017-06-02T02:18:04.280Z,16.90
2017-06-02T02:19:04.847Z,16.90
2017-06-02T02:20:05.415Z,16.86
2017-06-02T02:21:05.981Z,16.87
2017-06-02T02:22:06.550Z,16.86
2017-06-02T02:23:07.118Z,16.83
2017-06-02T02:24:07.676Z,16.86
2017-06-02T02:25:08.239Z,16.83
2017-06-02T02:26:08.793Z,16.79
2017-06-02T02:27:09.362Z,16.76
2017-06-02T02:28:09.920Z,16.75
2017-06-02T02:29:10.485Z,16.73
2017-06-02T02:30:11.046Z,16.78
2017-06-02T02:31:11.611Z,16.76
2017-06-02T02:32:12.220Z,16.71
2017-06-02T02:33:12.825Z,16.69
2017-06-02T02:34:13.445Z,16.68
2017-06-02T02:35:14.054Z,16.64
2017-06-02T02:36:14.659Z,16.68
2017-06-02T02:37:15.272Z,16.68
2017-06-02T02:38:15.892Z,16.69
2017-06-02T02:39:16.490Z,16.64
2017-06-02T02:40:17.103Z,16.60
2017-06-02T02:41:17.701Z,16.61
2017-06-02T02:42:18.313Z,16.61
2017-06-02T02:43:18.911Z,16.56
2017-06-02T02:44:19.569Z,16.63
2017-06-02T02:45:20.174Z,16.53
2017-06-02T02:46:20.772Z,16.56
2017-06-02T02:47:21.377Z,16.54
2017-06-02T02:48:21.987Z,16.53
2017-06-02T02:49:22.554Z,16.50
2017-06-02T02:50:23.122Z,16.46
2017-06-02T02:51:23.678Z,16.53
2017-06-02T02:52:24.244Z,16.53
2017-06-02T02:53:24.803Z,16.42
2017-06-02T02:54:25.357Z,16.53
2017-06-02T02:55:25.929Z,16.53
2017-06-02T02:56:26.498Z,16.50
2017-06-02T02:57:27.060Z,16.43
2017-06-02T02:58:27.632Z,16.49
2017-06-02T02:59:28.187Z,16.42
2017-06-02T03:00:28.755Z,16.51
2017-06-02T03:01:29.321Z,16.49
2017-06-02T03:02:29.874Z,16.51
2017-06-02T03:03:30.445Z,16.49
2017-06-02T03:04:31.015Z,16.49
2017-06-02T03:05:31.583Z,16.36
2017-06-02T03:06:32.147Z,16.41
2017-06-02T03:07:32.715Z,16.41
2017-06-02T03:08:33.282Z,16.42
2017-06-02T03:09:33.843Z,16.43
2017-06-02T03:10:34.417Z,16.41
2017-06-02T03:11:34.981Z,16.36
2017-06-02T03:12:35.536Z,16.36
2017-06-02T03:13:36.096Z,16.32
2017-06-02T03:14:36.669Z,16.29
2017-06-02T03:15:37.235Z,16.29
2017-06-02T03:16:37.791Z,16.36
2017-06-02T03:17:38.356Z,16.38
2017-06-02T03:18:38.918Z,16.32
2017-06-02T03:19:39.488Z,16.36
2017-06-02T03:20:40.053Z,16.31
2017-06-02T03:21:40.618Z,16.38
2017-06-02T03:22:41.178Z,16.35
2017-06-02T03:23:41.751Z,16.32
2017-06-02T03:24:42.321Z,16.36
2017-06-02T03:25:42.892Z,16.29
2017-06-02T03:26:43.451Z,16.24
2017-06-02T03:27:44.020Z,16.35
2017-06-02T03:28:44.577Z,16.27
2017-06-02T03:29:45.142Z,16.27
2017-06-02T03:30:45.713Z,16.32
2017-06-02T03:31:46.277Z,16.23
2017-06-02T03:32:46.831Z,16.17
2017-06-02T03:33:47.400Z,16.15
2017-06-02T03:34:47.973Z,16.17
2017-06-02T03:35:48.539Z,16.21
2017-06-02T03:36:49.106Z,16.17
2017-06-02T03:37:49.731Z,16.10
2017-06-02T03:38:50.239Z,16.21
2017-06-02T03:39:50.800Z,16.23
2017-06-02T03:40:51.356Z,16.13
2017-06-02T03:41:51.931Z,16.21
2017-06-02T03:42:52.501Z,16.16
2017-06-02T03:43:53.066Z,16.16
2017-06-02T03:44:53.635Z,16.17
2017-06-02T03:45:54.210Z,16.23
2017-06-02T03:46:54.768Z,16.24
2017-06-02T03:47:55.342Z,16.24
2017-06-02T03:48:55.907Z,16.24
2017-06-02T03:49:56.483Z,16.23
2017-06-02T03:50:57.042Z,16.25
2017-06-02T03:51:57.611Z,16.31
2017-06-02T03:52:58.181Z,16.32
2017-06-02T03:53:58.753Z,16.27
2017-06-02T03:54:59.324Z,16.23
2017-06-02T03:55:59.888Z,16.25
2017-06-02T03:57:00.461Z,16.29
2017-06-02T03:58:01.066Z,16.29
2017-06-02T03:59:01.635Z,16.31
2017-06-02T04:00:02.201Z,16.24
2017-06-02T04:01:02.767Z,16.27
2017-06-02T04:02:03.336Z,16.41
2017-06-02T04:03:03.904Z,16.33
2017-06-02T04:04:04.474Z,16.35
2017-06-02T04:05:05.045Z,16.33
2017-06-02T04:06:05.614Z,16.32
2017-06-02T04:07:06.179Z,16.32
2017-06-02T04:08:06.753Z,16.36
2017-06-02T04:09:07.317Z,16.43
2017-06-02T04:10:07.873Z,16.42
2017-06-02T04:11:08.431Z,16.42
2017-06-02T04:12:09.000Z,16.43
2017-06-02T04:13:09.565Z,16.50
2017-06-02T04:14:10.134Z,16.46
2017-06-02T04:15:10.694Z,16.56
2017-06-02T04:16:11.269Z,16.57
2017-06-02T04:17:11.839Z,16.73
2017-06-02T04:18:12.412Z,16.81
2017-06-02T04:19:12.977Z,16.86
2017-06-02T04:20:13.546Z,16.82
2017-06-02T04:21:14.104Z,16.98
2017-06-02T04:22:14.662Z,16.90
2017-06-02T04:23:15.228Z,17.05
2017-06-02T04:24:15.797Z,16.89
2017-06-02T04:25:16.357Z,16.93
2017-06-02T04:26:16.931Z,16.98
2017-06-02T04:27:17.495Z,16.98
2017-06-02T04:28:18.063Z,17.06
2017-06-02T04:29:18.633Z,17.06
2017-06-02T04:30:19.241Z,17.15
2017-06-02T04:31:19.862Z,17.23
2017-06-02T04:32:20.463Z,17.27
2017-06-02T04:33:21.076Z,17.30
2017-06-02T04:34:21.684Z,17.31
2017-06-02T04:35:22.307Z,17.36
2017-06-02T04:36:22.926Z,17.33
2017-06-02T04:37:23.534Z,17.41
2017-06-02T04:38:24.147Z,17.48
2017-06-02T04:39:24.764Z,17.67
2017-06-02T04:40:25.385Z,17.65
2017-06-02T04:41:26.006Z,17.71
2017-06-02T04:42:26.609Z,17.82
2017-06-02T04:43:27.231Z,17.82
2017-06-02T04:44:27.855Z,17.89
2017-06-02T04:45:28.456Z,17.90
2017-06-02T04:46:29.061Z,18.03
2017-06-02T04:47:29.677Z,18.03
2017-06-02T04:48:30.296Z,18.14
2017-06-02T04:49:30.917Z,18.53
2017-06-02T04:50:31.522Z,19.07
2017-06-02T04:51:32.144Z,19.54
2017-06-02T04:52:32.765Z,20.14
2017-06-02T04:53:33.382Z,20.51
2017-06-02T04:54:34.004Z,20.92
2017-06-02T04:55:34.628Z,21.30
2017-06-02T04:56:35.239Z,21.35
2017-06-02T04:57:35.860Z,21.18
2017-06-02T04:58:36.472Z,21.42
2017-06-02T04:59:37.094Z,21.89
2017-06-02T05:00:37.717Z,22.24
2017-06-02T05:01:38.339Z,22.50
2017-06-02T05:02:38.977Z,22.76
2017-06-02T05:03:39.594Z,23.12
2017-06-02T05:04:40.209Z,23.43
2017-06-02T05:05:40.832Z,23.79
2017-06-02T05:06:41.471Z,23.98
2017-06-02T05:07:42.095Z,24.27
2017-06-02T05:08:42.729Z,24.54
2017-06-02T05:09:43.353Z,24.86
2017-06-02T05:10:43.980Z,25.07
2017-06-02T05:11:44.606Z,25.21
2017-06-02T05:12:45.226Z,25.29
2017-06-02T05:13:45.842Z,25.21
2017-06-02T05:14:46.471Z,24.83
2017-06-02T05:15:47.101Z,24.58
2017-06-02T05:16:47.725Z,24.42
2017-06-02T05:17:48.354Z,24.56
2017-06-02T05:18:48.974Z,24.56
2017-06-02T05:19:49.606Z,24.94
2017-06-02T05:20:50.245Z,25.26
2017-06-02T05:21:50.883Z,25.44
2017-06-02T05:22:51.521Z,25.61
2017-06-02T05:23:52.141Z,25.83
2017-06-02T05:24:52.772Z,25.95
2017-06-02T05:25:53.390Z,25.98
2017-06-02T05:26:54.020Z,26.18
2017-06-02T05:27:54.641Z,25.91
2017-06-02T05:28:55.260Z,25.69
2017-06-02T05:29:55.881Z,25.41
2017-06-02T05:30:56.509Z,25.29
2017-06-02T05:31:57.126Z,25.50
2017-06-02T05:32:57.743Z,25.98
2017-06-02T05:33:58.411Z,26.31
2017-06-02T05:34:59.039Z,26.54
2017-06-02T05:35:59.696Z,26.76
2017-06-02T05:37:00.354Z,27.00
2017-06-02T05:38:00.982Z,27.33
2017-06-02T05:39:01.610Z,27.66
2017-06-02T05:40:02.227Z,27.96
2017-06-02T05:41:02.844Z,28.27
2017-06-02T05:42:03.476Z,28.35
2017-06-02T05:43:04.107Z,28.30
2017-06-02T05:44:04.734Z,28.40
2017-06-02T05:45:05.364Z,28.66
2017-06-02T05:46:05.982Z,28.54
2017-06-02T05:47:06.600Z,28.66
2017-06-02T05:48:07.221Z,29.04
2017-06-02T05:49:07.853Z,29.23
2017-06-02T05:50:08.472Z,28.85
2017-06-02T05:51:09.109Z,28.92
2017-06-02T05:52:09.742Z,29.08
2017-06-02T05:53:10.369Z,29.22
2017-06-02T05:54:11.006Z,29.16
2017-06-02T05:55:11.636Z,29.26
2017-06-02T05:56:12.260Z,29.20
2017-06-02T05:57:12.893Z,29.20
2017-06-02T05:58:13.530Z,29.69
2017-06-02T05:59:14.155Z,29.85
2017-06-02T06:00:14.787Z,30.00
2017-06-02T06:01:15.418Z,29.74
2017-06-02T06:02:16.047Z,29.62
2017-06-02T06:03:16.678Z,29.64
2017-06-02T06:04:17.302Z,29.84
2017-06-02T06:05:17.940Z,30.08
2017-06-02T06:06:18.568Z,30.35
2017-06-02T06:07:19.208Z,30.64
2017-06-02T06:08:19.839Z,30.83
2017-06-02T06:09:20.461Z,30.80
2017-06-02T06:10:21.082Z,30.87
2017-06-02T06:11:21.719Z,30.72
2017-06-02T06:12:22.353Z,31.01
2017-06-02T06:13:22.982Z,30.91
2017-06-02T06:14:23.610Z,30.35
2017-06-02T06:15:24.234Z,30.16
2017-06-02T06:16:24.861Z,30.19
2017-06-02T06:17:25.484Z,30.54
2017-06-02T06:18:26.120Z,30.86
2017-06-02T06:19:26.806Z,30.94
2017-06-02T06:20:27.441Z,31.02
2017-06-02T06:21:28.064Z,31.24
2017-06-02T06:22:28.691Z,31.27
2017-06-02T06:23:29.324Z,31.36
2017-06-02T06:24:29.959Z,31.24
2017-06-02T06:25:30.589Z,31.42
2017-06-02T06:26:31.211Z,31.55
2017-06-02T06:27:31.839Z,31.45
2017-06-02T06:28:32.468Z,31.46
2017-06-02T06:29:33.097Z,31.64
2017-06-02T06:30:33.732Z,31.46
2017-06-02T06:31:34.357Z,31.47
2017-06-02T06:32:34.990Z,31.80
2017-06-02T06:33:35.614Z,32.11
2017-06-02T06:34:36.240Z,32.11
2017-06-02T06:35:36.860Z,32.27
2017-06-02T06:36:37.494Z,32.17
2017-06-02T06:37:38.124Z,32.51
2017-06-02T06:38:38.750Z,32.41
2017-06-02T06:39:39.383Z,32.44
2017-06-02T06:40:40.011Z,32.37
2017-06-02T06:41:40.638Z,32.15
2017-06-02T06:42:41.278Z,32.14
2017-06-02T06:43:41.916Z,32.05
2017-06-02T06:44:42.546Z,32.06
2017-06-02T06:45:43.181Z,32.21
2017-06-02T06:46:43.808Z,32.48
2017-06-02T06:47:44.451Z,32.74
2017-06-02T06:48:45.087Z,32.99
2017-06-02T06:49:45.721Z,33.13
2017-06-02T06:50:46.357Z,33.30
2017-06-02T06:51:46.992Z,33.42
2017-06-02T06:52:47.615Z,33.43
2017-06-02T06:53:48.253Z,33.41
2017-06-02T06:54:48.891Z,33.41
2017-06-02T06:55:49.510Z,33.48
2017-06-02T06:56:50.146Z,33.48
2017-06-02T06:57:50.772Z,33.31
2017-06-02T06:58:51.409Z,33.42
2017-06-02T06:59:52.034Z,33.43
2017-06-02T07:00:52.672Z,33.50
2017-06-02T07:01:53.307Z,33.64
2017-06-02T07:02:53.931Z,33.41
2017-06-02T07:03:54.570Z,33.18
2017-06-02T07:04:55.213Z,33.22
2017-06-02T07:05:55.835Z,33.30
2017-06-02T07:06:56.464Z,33.42
2017-06-02T07:07:57.188Z,33.30
2017-06-02T07:08:57.822Z,33.18
2017-06-02T07:09:58.445Z,33.03
2017-06-02T07:10:59.081Z,33.30
2017-06-02T07:11:59.776Z,33.43
2017-06-02T07:13:00.430Z,33.53
2017-06-02T07:14:01.059Z,33.77
2017-06-02T07:15:01.702Z,33.86
2017-06-02T07:16:02.336Z,34.11
2017-06-02T07:17:02.961Z,34.19
2017-06-02T07:18:03.589Z,34.14
2017-06-02T07:19:04.226Z,34.35
2017-06-02T07:20:04.857Z,34.35
2017-06-02T07:21:05.489Z,34.61
2017-06-02T07:22:06.125Z,34.79
2017-06-02T07:23:06.764Z,35.07
2017-06-02T07:24:07.400Z,34.88
2017-06-02T07:25:08.040Z,35.01
2017-06-02T07:26:08.663Z,34.96
2017-06-02T07:27:09.293Z,35.07
2017-06-02T07:28:09.932Z,35.35
2017-06-02T07:29:10.570Z,35.36
2017-06-02T07:30:11.206Z,35.44
2017-06-02T07:31:11.841Z,35.67
2017-06-02T07:32:12.476Z,35.74
2017-06-02T07:33:13.114Z,35.77
2017-06-02T07:34:13.758Z,35.77
2017-06-02T07:35:14.445Z,35.52
2017-06-02T07:36:15.091Z,35.54
2017-06-02T07:37:15.726Z,35.39
2017-06-02T07:38:16.364Z,35.71
2017-06-02T07:39:16.992Z,35.51
2017-06-02T07:40:17.614Z,35.40
2017-06-02T07:41:18.239Z,35.40
2017-06-02T07:42:18.866Z,35.48
2017-06-02T07:43:19.504Z,35.21
2017-06-02T07:44:20.133Z,35.08
2017-06-02T07:45:20.761Z,35.32
2017-06-02T07:46:21.398Z,35.28
2017-06-02T07:47:22.040Z,35.42
2017-06-02T07:48:22.664Z,35.36
2017-06-02T07:49:23.289Z,35.21
2017-06-02T07:50:23.924Z,35.02
2017-06-02T07:51:24.553Z,35.01
2017-06-02T07:52:25.188Z,34.98
2017-06-02T07:53:25.867Z,35.15
2017-06-02T07:54:26.491Z,35.47
2017-06-02T07:55:27.122Z,35.36
2017-06-02T07:56:27.746Z,35.21
2017-06-02T07:57:28.387Z,35.23
2017-06-02T07:58:29.026Z,35.18
2017-06-02T07:59:29.664Z,35.21
2017-06-02T08:00:30.297Z,35.07
2017-06-02T08:01:30.938Z,34.91
2017-06-02T08:02:31.573Z,34.77
2017-06-02T08:03:32.208Z,34.64
2017-06-02T08:04:32.883Z,34.70
2017-06-02T08:05:33.523Z,34.54
2017-06-02T08:06:34.162Z,34.41
2017-06-02T08:07:34.859Z,34.19
2017-06-02T08:08:35.497Z,34.63
2017-06-02T08:09:36.129Z,34.73
2017-06-02T08:10:36.769Z,34.50
2017-06-02T08:11:37.402Z,34.39
2017-06-02T08:12:38.032Z,34.65
2017-06-02T08:13:38.657Z,34.70
2017-06-02T08:14:39.300Z,34.76
2017-06-02T08:15:39.945Z,34.96
2017-06-02T08:16:40.557Z,35.13
2017-06-02T08:17:41.195Z,35.25
2017-06-02T08:18:41.834Z,35.37
2017-06-02T08:19:42.468Z,35.28
2017-06-02T08:20:43.115Z,35.35
2017-06-02T08:21:43.751Z,35.52
2017-06-02T08:22:44.377Z,35.71
2017-06-02T08:23:45.001Z,35.57
2017-06-02T08:24:45.641Z,35.59
2017-06-02T08:25:46.272Z,35.57
2017-06-02T08:26:46.905Z,35.10
2017-06-02T08:27:47.540Z,34.81
2017-06-02T08:28:48.170Z,34.74
2017-06-02T08:29:48.808Z,34.83
2017-06-02T08:30:49.445Z,34.71
2017-06-02T08:31:50.066Z,34.61
2017-06-02T08:32:50.703Z,34.39
2017-06-02T08:33:51.321Z,34.45
2017-06-02T08:34:51.962Z,34.42
2017-06-02T08:35:52.600Z,34.46
2017-06-02T08:36:53.240Z,34.76
2017-06-02T08:37:53.865Z,35.02
2017-06-02T08:38:54.503Z,35.21
2017-06-02T08:39:55.131Z,35.07
2017-06-02T08:40:55.769Z,34.91
2017-06-02T08:41:56.407Z,35.14
2017-06-02T08:42:57.048Z,35.18
2017-06-02T08:43:57.673Z,34.71
2017-06-02T08:44:58.305Z,34.64
2017-06-02T08:45:58.937Z,34.74
2017-06-02T08:46:59.555Z,34.74
2017-06-02T08:48:00.190Z,34.80
2017-06-02T08:49:00.829Z,34.89
2017-06-02T08:50:01.450Z,34.98
2017-06-02T08:51:02.084Z,35.08
2017-06-02T08:52:02.725Z,35.25
2017-06-02T08:53:03.350Z,34.98
2017-06-02T08:54:03.978Z,35.10
2017-06-02T08:55:04.598Z,35.47
2017-06-02T08:56:05.237Z,35.42
2017-06-02T08:57:05.877Z,35.23
2017-06-02T08:58:06.505Z,35.21
2017-06-02T08:59:07.141Z,35.42
2017-06-02T09:00:21.394Z,35.23
2017-06-02T09:01:22.029Z,35.35
2017-06-02T09:02:22.704Z,35.37
2017-06-02T09:03:23.341Z,35.01
2017-06-02T09:04:23.973Z,34.84
2017-06-02T09:05:24.619Z,34.92
2017-06-02T09:06:25.251Z,34.96
2017-06-02T09:07:25.945Z,34.92
2017-06-02T09:08:26.583Z,34.67
2017-06-02T09:09:27.207Z,34.70
2017-06-02T09:10:27.838Z,34.80
2017-06-02T09:11:28.459Z,35.20
2017-06-02T09:12:29.092Z,35.45
2017-06-02T09:13:29.725Z,35.67
2017-06-02T09:14:30.361Z,35.44
2017-06-02T09:15:30.984Z,35.39
2017-06-02T09:16:31.616Z,35.57
2017-06-02T09:17:32.250Z,35.85
2017-06-02T09:18:32.874Z,36.03
2017-06-02T09:19:33.508Z,36.07
2017-06-02T09:20:34.138Z,36.01
2017-06-02T09:21:34.814Z,35.95
2017-06-02T09:22:35.462Z,35.98
2017-06-02T09:23:36.098Z,36.00
2017-06-02T09:24:36.732Z,35.93
2017-06-02T09:25:37.354Z,35.92
2017-06-02T09:26:38.031Z,35.93
2017-06-02T09:27:38.603Z,36.03
2017-06-02T09:28:39.242Z,36.08
2017-06-02T09:29:39.882Z,35.96
2017-06-02T09:30:40.521Z,36.11
2017-06-02T09:31:41.156Z,36.20
2017-06-02T09:32:41.792Z,36.03
2017-06-02T09:33:42.433Z,36.07
2017-06-02T09:34:43.070Z,36.06
2017-06-02T09:35:43.695Z,36.31
2017-06-02T09:36:44.321Z,36.43
2017-06-02T09:37:44.962Z,36.49
2017-06-02T09:38:45.601Z,36.38
2017-06-02T09:39:46.225Z,36.21
2017-06-02T09:40:46.864Z,36.11
2017-06-02T09:41:47.503Z,36.08
2017-06-02T09:42:48.133Z,36.15
2017-06-02T09:43:48.752Z,36.21
2017-06-02T09:44:49.389Z,36.04
2017-06-02T09:45:50.051Z,35.86
2017-06-02T09:46:50.655Z,35.57
2017-06-02T09:47:51.295Z,35.39
2017-06-02T09:48:51.926Z,35.37
2017-06-02T09:49:52.561Z,35.39
2017-06-02T09:50:53.190Z,35.42
2017-06-02T09:51:53.834Z,35.58
2017-06-02T09:52:54.479Z,35.71
2017-06-02T09:53:55.118Z,35.91
2017-06-02T09:54:55.742Z,36.00
2017-06-02T09:55:56.365Z,35.95
2017-06-02T09:56:56.999Z,36.07
2017-06-02T09:57:57.626Z,36.00
2017-06-02T09:58:58.250Z,35.93
2017-06-02T09:59:58.885Z,35.82
2017-06-02T10:00:59.523Z,35.47
2017-06-02T10:02:00.152Z,35.54
2017-06-02T10:03:00.786Z,35.40
2017-06-02T10:04:01.423Z,35.35
2017-06-02T10:05:02.057Z,35.48
2017-06-02T10:06:02.692Z,35.33
2017-06-02T10:07:03.374Z,35.18
2017-06-02T10:08:04.010Z,35.29
2017-06-02T10:09:04.652Z,35.50
2017-06-02T10:10:05.700Z,35.82
2017-06-02T10:11:06.333Z,35.86
2017-06-02T10:12:06.975Z,35.66
2017-06-02T10:13:07.612Z,35.39
2017-06-02T10:14:08.246Z,35.39
2017-06-02T10:15:08.886Z,35.28
2017-06-02T10:16:09.527Z,35.33
2017-06-02T10:17:10.166Z,35.36
2017-06-02T10:18:10.792Z,35.44
2017-06-02T10:19:11.436Z,35.32
2017-06-02T10:20:12.080Z,34.84
2017-06-02T10:21:12.715Z,34.88
2017-06-02T10:22:13.352Z,35.10
2017-06-02T10:23:14.033Z,35.36
2017-06-02T10:24:14.662Z,35.29
2017-06-02T10:25:15.283Z,35.17
2017-06-02T10:26:15.915Z,35.20
2017-06-02T10:27:16.553Z,35.36
2017-06-02T10:28:17.187Z,35.64
2017-06-02T10:29:17.822Z,35.54
2017-06-02T10:30:18.464Z,35.45
2017-06-02T10:31:19.086Z,35.51
2017-06-02T10:32:19.730Z,35.71
2017-06-02T10:33:20.376Z,35.86
2017-06-02T10:34:21.009Z,36.19
2017-06-02T10:35:21.648Z,36.23
2017-06-02T10:36:22.335Z,36.00
2017-06-02T10:37:22.916Z,35.96
2017-06-02T10:38:23.551Z,36.06
2017-06-02T10:39:24.185Z,36.03
2017-06-02T10:40:24.809Z,36.15
2017-06-02T10:41:25.436Z,35.77
2017-06-02T10:42:26.085Z,35.82
2017-06-02T10:43:26.724Z,35.79
2017-06-02T10:44:27.364Z,35.77
2017-06-02T10:45:28.006Z,35.93
2017-06-02T10:46:28.645Z,36.12
2017-06-02T10:47:29.343Z,36.15
2017-06-02T10:48:29.978Z,36.31
2017-06-02T10:49:44.233Z,36.06
2017-06-02T10:50:44.870Z,35.79
2017-06-02T10:51:45.504Z,35.74
2017-06-02T10:52:46.139Z,35.85
2017-06-02T10:53:46.771Z,35.74
2017-06-02T10:54:47.407Z,35.54
2017-06-02T10:55:48.046Z,35.39
2017-06-02T10:56:48.682Z,35.26
2017-06-02T10:57:49.322Z,35.29
2017-06-02T10:58:49.957Z,35.36
2017-06-02T10:59:50.611Z,35.64
2017-06-02T11:00:51.295Z,35.79
2017-06-02T11:01:51.935Z,35.82
2017-06-02T11:02:52.572Z,36.11
2017-06-02T11:03:53.213Z,36.38
2017-06-02T11:04:53.850Z,36.61
2017-06-02T11:05:54.472Z,37.02
2017-06-02T11:06:55.112Z,36.86
2017-06-02T11:07:55.756Z,36.99
2017-06-02T11:08:56.390Z,37.13
2017-06-02T11:09:57.023Z,37.19
2017-06-02T11:10:57.709Z,37.16
2017-06-02T11:11:58.352Z,37.46
2017-06-02T11:12:58.978Z,37.21
2017-06-02T11:13:59.617Z,37.07
2017-06-02T11:15:00.251Z,36.82
2017-06-02T11:16:00.876Z,36.68
2017-06-02T11:17:01.516Z,36.52
2017-06-02T11:18:02.186Z,36.39
2017-06-02T11:19:02.791Z,36.49
2017-06-02T11:20:03.431Z,36.73
2017-06-02T11:21:04.069Z,37.07
2017-06-02T11:22:04.706Z,37.24
2017-06-02T11:23:05.344Z,37.55
2017-06-02T11:24:06.262Z,37.41
2017-06-02T11:25:07.104Z,37.59
2017-06-02T11:26:07.739Z,37.42
2017-06-02T11:27:08.358Z,37.26
2017-06-02T11:28:08.996Z,37.32
2017-06-02T11:29:09.637Z,37.42
2017-06-02T11:30:10.301Z,37.42
2017-06-02T11:31:10.944Z,37.10
2017-06-02T11:32:11.567Z,37.14
2017-06-02T11:33:12.410Z,37.02
2017-06-02T11:34:13.034Z,37.28
2017-06-02T11:35:13.676Z,37.39
2017-06-02T11:36:14.307Z,37.26
2017-06-02T11:37:14.947Z,37.43
2017-06-02T11:38:15.590Z,37.51
2017-06-02T11:39:16.228Z,37.43
2017-06-02T11:40:16.869Z,37.70
2017-06-02T11:41:17.515Z,37.83
2017-06-02T11:42:18.190Z,37.62
2017-06-02T11:43:18.778Z,37.28
2017-06-02T11:44:19.419Z,36.70
2017-06-02T11:45:20.060Z,36.73
2017-06-02T11:46:20.700Z,36.97
2017-06-02T11:47:21.336Z,37.24
2017-06-02T11:48:21.977Z,37.14
2017-06-02T11:49:22.614Z,36.76
2017-06-02T11:50:23.233Z,36.36
2017-06-02T11:51:23.860Z,36.06
2017-06-02T11:52:24.494Z,36.08
2017-06-02T11:53:25.129Z,36.33
2017-06-02T11:54:25.750Z,36.61
2017-06-02T11:55:26.375Z,36.80
2017-06-02T11:56:27.003Z,36.91
2017-06-02T11:57:27.637Z,36.98
2017-06-02T11:58:28.268Z,37.01
2017-06-02T11:59:28.910Z,36.65
2017-06-02T12:00:29.547Z,36.67
2017-06-02T12:01:30.179Z,36.70
2017-06-02T12:02:30.816Z,36.91
2017-06-02T12:03:31.449Z,36.94
2017-06-02T12:04:32.087Z,36.99
2017-06-02T12:05:32.726Z,37.02
2017-06-02T12:06:33.360Z,37.26
2017-06-02T12:07:33.996Z,37.54
2017-06-02T12:08:34.619Z,37.67
2017-06-02T12:09:35.253Z,37.42
2017-06-02T12:10:35.873Z,37.07
2017-06-02T12:11:36.510Z,36.97
2017-06-02T12:12:37.141Z,36.68
2017-06-02T12:13:37.759Z,36.14
2017-06-02T12:14:38.388Z,35.91
2017-06-02T12:15:39.015Z,36.11
2017-06-02T12:16:39.650Z,36.42
2017-06-02T12:17:40.286Z,37.01
2017-06-02T12:18:40.909Z,37.36
2017-06-02T12:19:41.531Z,37.32
2017-06-02T12:20:42.169Z,37.56
2017-06-02T12:21:42.793Z,37.42
2017-06-02T12:22:43.428Z,37.61
2017-06-02T12:23:44.047Z,37.66
2017-06-02T12:24:44.673Z,37.24
2017-06-02T12:25:45.295Z,37.12
2017-06-02T12:26:45.926Z,37.19
2017-06-02T12:27:46.563Z,37.23
2017-06-02T12:28:47.204Z,37.21
2017-06-02T12:29:47.827Z,37.20
2017-06-02T12:30:48.461Z,37.58
2017-06-02T12:31:49.092Z,37.71
2017-06-02T12:32:49.722Z,37.70
2017-06-02T12:33:50.355Z,37.43
2017-06-02T12:34:50.987Z,37.55
2017-06-02T12:35:51.636Z,37.89
2017-06-02T12:36:52.259Z,38.05
2017-06-02T12:37:52.910Z,37.59
2017-06-02T12:38:53.538Z,37.50
2017-06-02T12:39:54.160Z,37.48
2017-06-02T12:40:54.788Z,37.46
2017-06-02T12:41:55.423Z,37.41
2017-06-02T12:42:56.048Z,37.46
2017-06-02T12:43:56.670Z,37.69
2017-06-02T12:44:57.310Z,37.88
2017-06-02T12:45:57.949Z,37.76
2017-06-02T12:46:58.584Z,38.05
2017-06-02T12:47:59.219Z,37.89
2017-06-02T12:48:59.857Z,37.76
2017-06-02T12:50:00.489Z,37.89
2017-06-02T12:51:01.119Z,37.70
2017-06-02T12:52:01.754Z,37.86
2017-06-02T12:53:02.394Z,38.12
2017-06-02T12:54:03.014Z,37.98
2017-06-02T12:55:03.652Z,37.90
2017-06-02T12:56:04.282Z,37.73
2017-06-02T12:57:04.927Z,37.32
2017-06-02T12:58:05.582Z,37.47
2017-06-02T12:59:06.207Z,37.51
2017-06-02T13:00:06.846Z,37.70
2017-06-02T13:01:07.484Z,37.98
2017-06-02T13:02:08.116Z,38.24